sensor_id;sensor_type;location;lat;lon;timestamp;pressure;altitude;pressure_sealevel;temperature;humidity
72892;BME280;61032;50.782;6.818;2023-01-25T00:00:04;102552.34;;;3.77;69.36
72892;BME280;61032;50.782;6.818;2023-01-25T00:01:05;102552.25;;;3.84;69.60
72892;BME280;61032;50.782;6.818;2023-01-25T00:02:06;102552.38;;;3.89;69.84
72892;BME280;61032;50.782;6.818;2023-01-25T00:03:07;102549.28;;;3.74;68.99
72892;BME280;61032;50.782;6.818;2023-01-25T00:04:07;102546.22;;;3.70;69.23
72892;BME280;61032;50.782;6.818;2023-01-25T00:05:08;102544.31;;;3.71;69.15
72892;BME280;61032;50.782;6.818;2023-01-25T00:06:08;102548.09;;;3.70;69.92
72892;BME280;61032;50.782;6.818;2023-01-25T00:07:09;102548.19;;;3.75;69.21
72892;BME280;61032;50.782;6.818;2023-01-25T00:08:09;102546.56;;;3.74;69.10
72892;BME280;61032;50.782;6.818;2023-01-25T00:09:10;102550.22;;;3.79;69.56
72892;BME280;61032;50.782;6.818;2023-01-25T00:10:10;102541.84;;;3.81;69.25
72892;BME280;61032;50.782;6.818;2023-01-25T00:11:10;102535.47;;;3.87;69.16
72892;BME280;61032;50.782;6.818;2023-01-25T00:12:11;102542.31;;;3.78;68.88
72892;BME280;61032;50.782;6.818;2023-01-25T00:13:11;102538.66;;;3.96;69.44
72892;BME280;61032;50.782;6.818;2023-01-25T00:14:12;102533.34;;;3.89;69.18
72892;BME280;61032;50.782;6.818;2023-01-25T00:15:13;102535.78;;;3.79;68.84
72892;BME280;61032;50.782;6.818;2023-01-25T00:16:13;102537.91;;;3.77;69.22
72892;BME280;61032;50.782;6.818;2023-01-25T00:17:14;102539.56;;;3.66;69.21
72892;BME280;61032;50.782;6.818;2023-01-25T00:18:14;102537.69;;;3.67;69.10
72892;BME280;61032;50.782;6.818;2023-01-25T00:19:14;102536.13;;;3.59;69.84
72892;BME280;61032;50.782;6.818;2023-01-25T00:20:15;102539.66;;;3.60;69.94
72892;BME280;61032;50.782;6.818;2023-01-25T00:21:21;102536.03;;;3.66;70.30
72892;BME280;61032;50.782;6.818;2023-01-25T00:22:21;102533.31;;;3.66;69.97
72892;BME280;61032;50.782;6.818;2023-01-25T00:23:22;102535.78;;;3.67;70.38
72892;BME280;61032;50.782;6.818;2023-01-25T00:24:22;102540.75;;;3.70;69.72
72892;BME280;61032;50.782;6.818;2023-01-25T00:25:23;102534.97;;;3.67;69.51
72892;BME280;61032;50.782;6.818;2023-01-25T00:26:23;102539.94;;;3.70;69.89
72892;BME280;61032;50.782;6.818;2023-01-25T00:27:23;102526.34;;;3.70;69.93
72892;BME280;61032;50.782;6.818;2023-01-25T00:28:24;102531.78;;;3.70;69.88
72892;BME280;61032;50.782;6.818;2023-01-25T00:29:24;102537.81;;;3.72;69.84
72892;BME280;61032;50.782;6.818;2023-01-25T00:30:24;102529.06;;;3.70;69.94
72892;BME280;61032;50.782;6.818;2023-01-25T00:32:36;102529.88;;;3.70;70.28
72892;BME280;61032;50.782;6.818;2023-01-25T00:35:10;102521.72;;;3.82;69.26
72892;BME280;61032;50.782;6.818;2023-01-25T00:36:30;102519.47;;;3.79;69.42
72892;BME280;61032;50.782;6.818;2023-01-25T00:37:35;102522.56;;;3.83;69.81
72892;BME280;61032;50.782;6.818;2023-01-25T00:38:37;102522.19;;;3.79;69.84
72892;BME280;61032;50.782;6.818;2023-01-25T00:39:37;102520.81;;;3.88;69.23
72892;BME280;61032;50.782;6.818;2023-01-25T00:40:38;102520.66;;;3.83;69.94
72892;BME280;61032;50.782;6.818;2023-01-25T00:41:38;102516.28;;;3.82;69.30
72892;BME280;61032;50.782;6.818;2023-01-25T00:42:39;102522.56;;;3.83;69.43
72892;BME280;61032;50.782;6.818;2023-01-25T00:43:40;102523.84;;;3.80;70.18
72892;BME280;61032;50.782;6.818;2023-01-25T00:44:40;102520.66;;;3.71;70.16
72892;BME280;61032;50.782;6.818;2023-01-25T00:45:40;102526.66;;;3.62;69.56
72892;BME280;61032;50.782;6.818;2023-01-25T00:46:40;102525.25;;;3.59;70.44
72892;BME280;61032;50.782;6.818;2023-01-25T00:47:41;102516.97;;;3.66;70.08
72892;BME280;61032;50.782;6.818;2023-01-25T00:48:41;102524.91;;;3.67;70.29
72892;BME280;61032;50.782;6.818;2023-01-25T00:49:43;102518.03;;;3.65;70.57
72892;BME280;61032;50.782;6.818;2023-01-25T00:50:43;102518.28;;;3.63;70.30
72892;BME280;61032;50.782;6.818;2023-01-25T00:51:44;102514.72;;;3.63;70.52
72892;BME280;61032;50.782;6.818;2023-01-25T00:52:44;102511.53;;;3.66;70.04
72892;BME280;61032;50.782;6.818;2023-01-25T00:53:44;102509.44;;;3.68;69.74
72892;BME280;61032;50.782;6.818;2023-01-25T00:54:45;102511.53;;;3.66;70.57
72892;BME280;61032;50.782;6.818;2023-01-25T00:55:51;102510.34;;;3.50;70.18
72892;BME280;61032;50.782;6.818;2023-01-25T00:56:52;102513.53;;;3.47;70.75
72892;BME280;61032;50.782;6.818;2023-01-25T00:57:54;102508.31;;;3.45;70.52
72892;BME280;61032;50.782;6.818;2023-01-25T00:58:54;102497.22;;;3.47;70.89
72892;BME280;61032;50.782;6.818;2023-01-25T00:59:54;102505.13;;;3.49;71.31
72892;BME280;61032;50.782;6.818;2023-01-25T01:00:55;102508.53;;;3.44;70.63
72892;BME280;61032;50.782;6.818;2023-01-25T01:01:56;102502.28;;;3.43;71.57
72892;BME280;61032;50.782;6.818;2023-01-25T01:02:56;102498.50;;;3.44;70.89
72892;BME280;61032;50.782;6.818;2023-01-25T01:03:56;102499.69;;;3.49;71.20
72892;BME280;61032;50.782;6.818;2023-01-25T01:04:57;102500.06;;;3.52;71.44
72892;BME280;61032;50.782;6.818;2023-01-25T01:06:09;102502.53;;;3.54;71.34
72892;BME280;61032;50.782;6.818;2023-01-25T01:07:13;102499.47;;;3.50;70.27
72892;BME280;61032;50.782;6.818;2023-01-25T01:08:14;102498.88;;;3.48;71.23
72892;BME280;61032;50.782;6.818;2023-01-25T01:09:17;102500.53;;;3.49;71.68
72892;BME280;61032;50.782;6.818;2023-01-25T01:10:17;102497.44;;;3.45;71.60
72892;BME280;61032;50.782;6.818;2023-01-25T01:11:17;102494.25;;;3.49;71.13
72892;BME280;61032;50.782;6.818;2023-01-25T01:12:18;102494.63;;;3.52;71.84
72892;BME280;61032;50.782;6.818;2023-01-25T01:13:18;102499.34;;;3.57;71.05
72892;BME280;61032;50.782;6.818;2023-01-25T01:14:19;102494.50;;;3.59;70.91
72892;BME280;61032;50.782;6.818;2023-01-25T01:15:20;102495.31;;;3.59;70.61
72892;BME280;61032;50.782;6.818;2023-01-25T01:16:20;102494.28;;;3.60;70.57
72892;BME280;61032;50.782;6.818;2023-01-25T01:17:21;102497.34;;;3.64;70.92
72892;BME280;61032;50.782;6.818;2023-01-25T01:18:21;102492.63;;;3.59;70.64
72892;BME280;61032;50.782;6.818;2023-01-25T01:19:22;102488.47;;;3.57;71.20
72892;BME280;61032;50.782;6.818;2023-01-25T01:20:22;102484.44;;;3.59;71.49
72892;BME280;61032;50.782;6.818;2023-01-25T01:21:23;102493.69;;;3.70;70.63
72892;BME280;61032;50.782;6.818;2023-01-25T01:22:23;102491.34;;;3.73;69.87
72892;BME280;61032;50.782;6.818;2023-01-25T01:23:23;102485.78;;;3.68;70.39
72892;BME280;61032;50.782;6.818;2023-01-25T01:24:24;102493.25;;;3.73;70.75
72892;BME280;61032;50.782;6.818;2023-01-25T01:25:24;102491.00;;;3.70;71.00
72892;BME280;61032;50.782;6.818;2023-01-25T01:26:24;102490.63;;;3.78;70.50
72892;BME280;61032;50.782;6.818;2023-01-25T01:27:25;102485.09;;;3.73;69.92
72892;BME280;61032;50.782;6.818;2023-01-25T01:28:27;102493.81;;;3.75;70.25
72892;BME280;61032;50.782;6.818;2023-01-25T01:29:28;102493.47;;;3.71;70.66
72892;BME280;61032;50.782;6.818;2023-01-25T01:30:28;102495.47;;;3.64;70.64
72892;BME280;61032;50.782;6.818;2023-01-25T01:31:28;102494.41;;;3.65;70.58
72892;BME280;61032;50.782;6.818;2023-01-25T01:32:28;102489.78;;;3.66;70.63
72892;BME280;61032;50.782;6.818;2023-01-25T01:33:29;102493.44;;;3.60;70.71
72892;BME280;61032;50.782;6.818;2023-01-25T01:34:29;102490.94;;;3.58;71.32
72892;BME280;61032;50.782;6.818;2023-01-25T01:35:31;102493.56;;;3.53;71.30
72892;BME280;61032;50.782;6.818;2023-01-25T01:36:31;102493.22;;;3.61;71.26
72892;BME280;61032;50.782;6.818;2023-01-25T01:37:32;102492.00;;;3.57;71.06
72892;BME280;61032;50.782;6.818;2023-01-25T01:38:32;102495.78;;;3.56;71.71
72892;BME280;61032;50.782;6.818;2023-01-25T01:39:32;102491.09;;;3.52;71.19
72892;BME280;61032;50.782;6.818;2023-01-25T01:40:33;102499.09;;;3.58;71.56
72892;BME280;61032;50.782;6.818;2023-01-25T01:41:33;102505.84;;;3.56;71.44
72892;BME280;61032;50.782;6.818;2023-01-25T01:43:00;102501.97;;;3.52;71.70
72892;BME280;61032;50.782;6.818;2023-01-25T01:44:01;102499.69;;;3.49;71.36
72892;BME280;61032;50.782;6.818;2023-01-25T01:46:40;102502.88;;;3.57;70.85
72892;BME280;61032;50.782;6.818;2023-01-25T01:47:41;102500.91;;;3.53;71.39
72892;BME280;61032;50.782;6.818;2023-01-25T01:48:51;102488.69;;;3.43;71.29
72892;BME280;61032;50.782;6.818;2023-01-25T01:49:58;102495.19;;;3.42;71.66
72892;BME280;61032;50.782;6.818;2023-01-25T01:51:07;102495.78;;;3.44;72.10
72892;BME280;61032;50.782;6.818;2023-01-25T01:52:15;102498.50;;;3.44;72.13
72892;BME280;61032;50.782;6.818;2023-01-25T01:53:17;102499.34;;;3.45;72.12
72892;BME280;61032;50.782;6.818;2023-01-25T01:54:46;102495.91;;;3.50;72.31
72892;BME280;61032;50.782;6.818;2023-01-25T01:55:44;102497.44;;;3.45;72.05
72892;BME280;61032;50.782;6.818;2023-01-25T01:56:55;102496.38;;;3.47;71.72
72892;BME280;61032;50.782;6.818;2023-01-25T01:57:58;102493.75;;;3.40;71.86
72892;BME280;61032;50.782;6.818;2023-01-25T01:58:58;102495.50;;;3.34;72.32
72892;BME280;61032;50.782;6.818;2023-01-25T02:00:09;102496.47;;;3.40;72.46
72892;BME280;61032;50.782;6.818;2023-01-25T02:01:11;102496.84;;;3.43;72.15
72892;BME280;61032;50.782;6.818;2023-01-25T02:02:13;102484.31;;;3.54;72.05
72892;BME280;61032;50.782;6.818;2023-01-25T02:03:13;102492.59;;;3.48;71.78
72892;BME280;61032;50.782;6.818;2023-01-25T02:04:17;102495.41;;;3.41;71.71
72892;BME280;61032;50.782;6.818;2023-01-25T02:05:29;102494.34;;;3.42;72.06
72892;BME280;61032;50.782;6.818;2023-01-25T02:06:38;102499.69;;;3.49;72.39
72892;BME280;61032;50.782;6.818;2023-01-25T02:07:40;102493.06;;;3.44;71.80
72892;BME280;61032;50.782;6.818;2023-01-25T02:08:42;102490.56;;;3.43;72.23
72892;BME280;61032;50.782;6.818;2023-01-25T02:09:43;102489.28;;;3.45;72.60
72892;BME280;61032;50.782;6.818;2023-01-25T02:10:44;102488.69;;;3.55;72.15
72892;BME280;61032;50.782;6.818;2023-01-25T02:11:45;102485.75;;;3.57;71.64
72892;BME280;61032;50.782;6.818;2023-01-25T02:12:46;102489.53;;;3.56;71.96
72892;BME280;61032;50.782;6.818;2023-01-25T02:13:47;102484.91;;;3.56;71.94
72892;BME280;61032;50.782;6.818;2023-01-25T02:14:51;102483.38;;;3.49;72.31
72892;BME280;61032;50.782;6.818;2023-01-25T02:15:53;102483.38;;;3.49;72.27
72892;BME280;61032;50.782;6.818;2023-01-25T02:16:56;102479.16;;;3.53;72.26
72892;BME280;61032;50.782;6.818;2023-01-25T02:17:58;102487.31;;;3.53;71.82
72892;BME280;61032;50.782;6.818;2023-01-25T02:18:58;102484.59;;;3.53;72.26
72892;BME280;61032;50.782;6.818;2023-01-25T02:20:12;102483.25;;;3.55;72.09
72892;BME280;61032;50.782;6.818;2023-01-25T02:21:16;102479.59;;;3.50;71.24
72892;BME280;61032;50.782;6.818;2023-01-25T02:22:21;102477.81;;;3.43;71.66
72892;BME280;61032;50.782;6.818;2023-01-25T02:23:32;102482.50;;;3.36;72.53
72892;BME280;61032;50.782;6.818;2023-01-25T02:24:38;102482.72;;;3.23;72.61
72892;BME280;61032;50.782;6.818;2023-01-25T02:25:42;102482.94;;;3.10;73.68
72892;BME280;61032;50.782;6.818;2023-01-25T02:26:42;102479.72;;;3.13;73.95
72892;BME280;61032;50.782;6.818;2023-01-25T02:27:46;102492.69;;;3.29;74.03
72892;BME280;61032;50.782;6.818;2023-01-25T02:28:58;102483.09;;;3.27;73.35
72892;BME280;61032;50.782;6.818;2023-01-25T02:30:02;102492.78;;;3.34;73.08
72892;BME280;61032;50.782;6.818;2023-01-25T02:31:03;102485.84;;;3.38;72.83
72892;BME280;61032;50.782;6.818;2023-01-25T02:32:05;102487.50;;;3.39;72.89
72892;BME280;61032;50.782;6.818;2023-01-25T02:33:05;102482.66;;;3.41;73.12
72892;BME280;61032;50.782;6.818;2023-01-25T02:34:06;102480.06;;;3.47;72.98
72892;BME280;61032;50.782;6.818;2023-01-25T02:35:07;102474.78;;;3.52;72.70
72892;BME280;61032;50.782;6.818;2023-01-25T02:37:12;102473.72;;;3.53;71.93
72892;BME280;61032;50.782;6.818;2023-01-25T02:38:15;102473.72;;;3.53;71.82
72892;BME280;61032;50.782;6.818;2023-01-25T02:39:17;102468.28;;;3.53;72.25
72892;BME280;61032;50.782;6.818;2023-01-25T02:40:18;102472.00;;;3.40;73.09
72892;BME280;61032;50.782;6.818;2023-01-25T02:41:34;102468.84;;;3.43;72.20
72892;BME280;61032;50.782;6.818;2023-01-25T02:42:35;102465.16;;;3.37;72.40
72892;BME280;61032;50.782;6.818;2023-01-25T02:43:36;102463.63;;;3.41;72.39
72892;BME280;61032;50.782;6.818;2023-01-25T02:44:36;102465.06;;;3.44;72.76
72892;BME280;61032;50.782;6.818;2023-01-25T02:45:37;102466.38;;;3.53;72.49
72892;BME280;61032;50.782;6.818;2023-01-25T02:46:39;102465.56;;;3.53;72.47
72892;BME280;61032;50.782;6.818;2023-01-25T02:47:40;102469.44;;;3.57;72.32
72892;BME280;61032;50.782;6.818;2023-01-25T02:48:40;102473.22;;;3.56;72.81
72892;BME280;61032;50.782;6.818;2023-01-25T02:49:40;102472.06;;;3.52;72.41
72892;BME280;61032;50.782;6.818;2023-01-25T02:50:41;102473.56;;;3.48;72.05
72892;BME280;61032;50.782;6.818;2023-01-25T02:51:45;102473.72;;;3.53;72.88
72892;BME280;61032;50.782;6.818;2023-01-25T02:52:45;102470.16;;;3.64;72.12
72892;BME280;61032;50.782;6.818;2023-01-25T02:53:46;102469.19;;;3.58;72.18
72892;BME280;61032;50.782;6.818;2023-01-25T02:54:46;102470.03;;;3.59;72.11
72892;BME280;61032;50.782;6.818;2023-01-25T02:55:47;102471.09;;;3.58;72.65
72892;BME280;61032;50.782;6.818;2023-01-25T02:56:47;102464.00;;;3.57;72.03
72892;BME280;61032;50.782;6.818;2023-01-25T02:57:48;102462.22;;;3.62;72.05
72892;BME280;61032;50.782;6.818;2023-01-25T02:58:48;102459.50;;;3.62;72.00
72892;BME280;61032;50.782;6.818;2023-01-25T02:59:49;102459.28;;;3.64;71.98
72892;BME280;61032;50.782;6.818;2023-01-25T03:00:49;102462.59;;;3.66;72.16
72892;BME280;61032;50.782;6.818;2023-01-25T03:01:49;102464.97;;;3.51;71.56
72892;BME280;61032;50.782;6.818;2023-01-25T03:02:50;102466.00;;;3.50;72.39
72892;BME280;61032;50.782;6.818;2023-01-25T03:03:50;102463.75;;;3.47;72.22
72892;BME280;61032;50.782;6.818;2023-01-25T03:04:50;102458.09;;;3.48;72.27
72892;BME280;61032;50.782;6.818;2023-01-25T03:05:51;102465.50;;;3.41;73.25
72892;BME280;61032;50.782;6.818;2023-01-25T03:06:51;102463.84;;;3.40;72.85
72892;BME280;61032;50.782;6.818;2023-01-25T03:07:52;102468.00;;;3.42;73.06
72892;BME280;61032;50.782;6.818;2023-01-25T03:08:52;102465.28;;;3.42;73.38
72892;BME280;61032;50.782;6.818;2023-01-25T03:09:52;102462.44;;;3.37;73.12
72892;BME280;61032;50.782;6.818;2023-01-25T03:10:57;102461.75;;;3.42;72.95
72892;BME280;61032;50.782;6.818;2023-01-25T03:11:58;102461.38;;;3.38;72.58
72892;BME280;61032;50.782;6.818;2023-01-25T03:12:58;102458.19;;;3.41;72.80
72892;BME280;61032;50.782;6.818;2023-01-25T03:13:58;102469.19;;;3.47;73.12
72892;BME280;61032;50.782;6.818;2023-01-25T03:14:58;102469.19;;;3.47;72.24
72892;BME280;61032;50.782;6.818;2023-01-25T03:16:08;102471.31;;;3.44;72.32
72892;BME280;61032;50.782;6.818;2023-01-25T03:17:08;102467.06;;;3.49;72.65
72892;BME280;61032;50.782;6.818;2023-01-25T03:18:09;102470.41;;;3.51;71.80
72892;BME280;61032;50.782;6.818;2023-01-25T03:19:09;102468.28;;;3.53;71.97
72892;BME280;61032;50.782;6.818;2023-01-25T03:20:10;102459.38;;;3.45;72.22
72892;BME280;61032;50.782;6.818;2023-01-25T03:21:13;102462.19;;;3.39;72.73
72892;BME280;61032;50.782;6.818;2023-01-25T03:22:14;102466.09;;;3.31;72.96
72892;BME280;61032;50.782;6.818;2023-01-25T03:23:15;102463.25;;;3.26;73.17
72892;BME280;61032;50.782;6.818;2023-01-25T03:24:15;102462.78;;;3.29;73.13
72892;BME280;61032;50.782;6.818;2023-01-25T03:25:15;102463.84;;;3.28;73.05
72892;BME280;61032;50.782;6.818;2023-01-25T03:26:18;102464.09;;;3.38;72.68
72892;BME280;61032;50.782;6.818;2023-01-25T03:27:19;102464.44;;;3.30;72.55
72892;BME280;61032;50.782;6.818;2023-01-25T03:28:19;102459.13;;;3.35;72.98
72892;BME280;61032;50.782;6.818;2023-01-25T03:29:20;102457.81;;;3.38;73.05
72892;BME280;61032;50.782;6.818;2023-01-25T03:30:20;102458.28;;;3.35;73.25
72892;BME280;61032;50.782;6.818;2023-01-25T03:31:20;102460.31;;;3.39;72.65
72892;BME280;61032;50.782;6.818;2023-01-25T03:32:21;102459.72;;;3.37;72.29
72892;BME280;61032;50.782;6.818;2023-01-25T03:33:21;102456.66;;;3.45;72.77
72892;BME280;61032;50.782;6.818;2023-01-25T03:34:21;102459.47;;;3.39;72.41
72892;BME280;61032;50.782;6.818;2023-01-25T03:35:22;102459.84;;;3.42;73.38
72892;BME280;61032;50.782;6.818;2023-01-25T03:36:22;102465.06;;;3.44;72.94
72892;BME280;61032;50.782;6.818;2023-01-25T03:37:23;102474.25;;;3.31;72.43
72892;BME280;61032;50.782;6.818;2023-01-25T03:38:26;102465.69;;;3.16;72.91
72892;BME280;61032;50.782;6.818;2023-01-25T03:39:27;102472.56;;;3.19;72.55
72892;BME280;61032;50.782;6.818;2023-01-25T03:40:27;102464.31;;;3.25;72.97
72892;BME280;61032;50.782;6.818;2023-01-25T03:41:27;102464.31;;;3.25;72.79
72892;BME280;61032;50.782;6.818;2023-01-25T03:42:28;102464.06;;;3.27;73.02
72892;BME280;61032;50.782;6.818;2023-01-25T03:43:29;102459.56;;;3.21;73.02
72892;BME280;61032;50.782;6.818;2023-01-25T03:44:29;102463.56;;;3.18;73.11
72892;BME280;61032;50.782;6.818;2023-01-25T03:45:29;102459.78;;;3.19;73.07
72892;BME280;61032;50.782;6.818;2023-01-25T03:46:30;102461.91;;;3.17;73.51
72892;BME280;61032;50.782;6.818;2023-01-25T03:47:30;102463.09;;;3.21;72.89
72892;BME280;61032;50.782;6.818;2023-01-25T03:48:30;102462.06;;;3.22;73.35
72892;BME280;61032;50.782;6.818;2023-01-25T03:49:31;102460.66;;;3.31;73.55
72892;BME280;61032;50.782;6.818;2023-01-25T03:50:31;102450.88;;;3.42;73.27
72892;BME280;61032;50.782;6.818;2023-01-25T03:51:32;102455.00;;;3.44;72.75
72892;BME280;61032;50.782;6.818;2023-01-25T03:52:33;102459.03;;;3.54;72.68
72892;BME280;61032;50.782;6.818;2023-01-25T03:53:39;102450.63;;;3.55;71.92
72892;BME280;61032;50.782;6.818;2023-01-25T03:54:40;102453.81;;;3.40;72.54
72892;BME280;61032;50.782;6.818;2023-01-25T03:55:40;102457.59;;;3.39;72.73
72892;BME280;61032;50.782;6.818;2023-01-25T03:56:40;102452.28;;;3.44;72.73
72892;BME280;61032;50.782;6.818;2023-01-25T03:57:41;102451.09;;;3.40;72.93
72892;BME280;61032;50.782;6.818;2023-01-25T03:58:41;102447.31;;;3.41;72.05
72892;BME280;61032;50.782;6.818;2023-01-25T03:59:41;102453.09;;;3.33;72.65
72892;BME280;61032;50.782;6.818;2023-01-25T04:00:41;102455.56;;;3.23;72.67
72892;BME280;61032;50.782;6.818;2023-01-25T04:01:42;102451.19;;;3.22;72.63
72892;BME280;61032;50.782;6.818;2023-01-25T04:02:42;102455.56;;;3.23;73.28
72892;BME280;61032;50.782;6.818;2023-01-25T04:03:42;102449.66;;;3.26;73.07
72892;BME280;61032;50.782;6.818;2023-01-25T04:04:43;102450.81;;;3.19;73.48
72892;BME280;61032;50.782;6.818;2023-01-25T04:05:43;102451.50;;;3.14;72.71
72892;BME280;61032;50.782;6.818;2023-01-25T04:06:43;102457.69;;;3.21;72.66
72892;BME280;61032;50.782;6.818;2023-01-25T04:07:44;102463.03;;;3.28;72.57
72892;BME280;61032;50.782;6.818;2023-01-25T04:08:44;102457.59;;;3.28;72.76
72892;BME280;61032;50.782;6.818;2023-01-25T04:09:44;102455.09;;;3.26;73.29
72892;BME280;61032;50.782;6.818;2023-01-25T04:10:49;102453.44;;;3.25;72.93
72892;BME280;61032;50.782;6.818;2023-01-25T04:11:51;102440.31;;;3.22;73.18
72892;BME280;61032;50.782;6.818;2023-01-25T04:12:51;102453.91;;;3.22;73.21
72892;BME280;61032;50.782;6.818;2023-01-25T04:13:51;102445.97;;;3.09;73.98
72892;BME280;61032;50.782;6.818;2023-01-25T04:14:52;102455.41;;;3.18;73.66
72892;BME280;61032;50.782;6.818;2023-01-25T04:15:53;102435.72;;;3.23;73.04
72892;BME280;61032;50.782;6.818;2023-01-25T04:16:54;102434.41;;;3.25;72.84
72892;BME280;61032;50.782;6.818;2023-01-25T04:17:59;102433.50;;;3.31;72.93
72892;BME280;61032;50.782;6.818;2023-01-25T04:19:02;102441.66;;;3.31;72.67
72892;BME280;61032;50.782;6.818;2023-01-25T04:20:03;102435.81;;;3.16;72.80
72892;BME280;61032;50.782;6.818;2023-01-25T04:21:04;102432.84;;;3.18;73.38
72892;BME280;61032;50.782;6.818;2023-01-25T04:22:04;102428.16;;;3.25;73.31
72892;BME280;61032;50.782;6.818;2023-01-25T04:23:05;102427.19;;;3.19;73.60
72892;BME280;61032;50.782;6.818;2023-01-25T04:24:16;102426.44;;;3.12;73.26
72892;BME280;61032;50.782;6.818;2023-01-25T04:25:23;102421.28;;;3.10;73.68
72892;BME280;61032;50.782;6.818;2023-01-25T04:26:23;102425.75;;;3.05;73.73
72892;BME280;61032;50.782;6.818;2023-01-25T04:27:24;102433.06;;;3.04;74.29
72892;BME280;61032;50.782;6.818;2023-01-25T04:28:26;102424.47;;;3.07;73.96
72892;BME280;61032;50.782;6.818;2023-01-25T04:29:26;102417.13;;;3.08;74.29
72892;BME280;61032;50.782;6.818;2023-01-25T04:30:27;102412.06;;;3.12;73.33
72892;BME280;61032;50.782;6.818;2023-01-25T04:31:27;102412.75;;;3.07;73.23
72892;BME280;61032;50.782;6.818;2023-01-25T04:32:27;102410.50;;;3.04;73.60
72892;BME280;61032;50.782;6.818;2023-01-25T04:33:28;102404.16;;;3.10;73.40
72892;BME280;61032;50.782;6.818;2023-01-25T04:34:28;102410.66;;;3.09;73.62
72892;BME280;61032;50.782;6.818;2023-01-25T04:35:28;102409.44;;;3.05;74.20
72892;BME280;61032;50.782;6.818;2023-01-25T04:36:29;102405.91;;;3.04;73.86
72892;BME280;61032;50.782;6.818;2023-01-25T04:37:29;102403.19;;;3.04;73.98
72892;BME280;61032;50.782;6.818;2023-01-25T04:38:29;102407.94;;;3.09;74.09
72892;BME280;61032;50.782;6.818;2023-01-25T04:39:29;102399.88;;;3.14;73.68
72892;BME280;61032;50.782;6.818;2023-01-25T04:40:30;102402.81;;;3.13;73.52
72892;BME280;61032;50.782;6.818;2023-01-25T04:41:30;102404.47;;;3.14;73.63
72892;BME280;61032;50.782;6.818;2023-01-25T04:42:30;102399.19;;;3.19;73.38
72892;BME280;61032;50.782;6.818;2023-01-25T04:43:31;102403.19;;;3.16;73.59
72892;BME280;61032;50.782;6.818;2023-01-25T04:44:31;102402.69;;;2.96;74.58
72892;BME280;61032;50.782;6.818;2023-01-25T04:45:32;102405.63;;;2.94;74.18
72892;BME280;61032;50.782;6.818;2023-01-25T04:46:32;102399.53;;;3.10;74.54
72892;BME280;61032;50.782;6.818;2023-01-25T04:47:32;102391.41;;;3.22;73.44
72892;BME280;61032;50.782;6.818;2023-01-25T04:48:33;102390.22;;;3.30;73.52
72892;BME280;61032;50.782;6.818;2023-01-25T04:49:33;102393.28;;;3.33;72.65
72892;BME280;61032;50.782;6.818;2023-01-25T04:50:33;102382.19;;;3.23;73.11
72892;BME280;61032;50.782;6.818;2023-01-25T04:51:33;102389.13;;;3.07;73.31
72892;BME280;61032;50.782;6.818;2023-01-25T04:52:34;102392.22;;;3.11;73.95
72892;BME280;61032;50.782;6.818;2023-01-25T04:53:34;102390.06;;;3.01;74.15
72892;BME280;61032;50.782;6.818;2023-01-25T04:54:34;102382.13;;;3.00;74.29
72892;BME280;61032;50.782;6.818;2023-01-25T04:55:35;102388.41;;;3.00;74.46
72892;BME280;61032;50.782;6.818;2023-01-25T04:56:35;102394.19;;;3.04;74.55
72892;BME280;61032;50.782;6.818;2023-01-25T04:57:36;102390.44;;;3.05;74.16
72892;BME280;61032;50.782;6.818;2023-01-25T04:58:36;102385.13;;;3.10;74.78
72892;BME280;61032;50.782;6.818;2023-01-25T04:59:36;102381.59;;;3.09;75.21
72892;BME280;61032;50.782;6.818;2023-01-25T05:00:37;102386.28;;;3.02;74.82
72892;BME280;61032;50.782;6.818;2023-01-25T05:01:37;102392.78;;;3.13;74.38
72892;BME280;61032;50.782;6.818;2023-01-25T05:02:38;102388.09;;;3.20;73.92
72892;BME280;61032;50.782;6.818;2023-01-25T05:03:38;102396.84;;;3.34;73.00
72892;BME280;61032;50.782;6.818;2023-01-25T05:04:39;102393.41;;;3.38;73.39
72892;BME280;61032;50.782;6.818;2023-01-25T05:05:43;102392.13;;;3.41;73.70
72892;BME280;61032;50.782;6.818;2023-01-25T05:06:44;102391.41;;;3.22;73.28
72892;BME280;61032;50.782;6.818;2023-01-25T05:07:44;102387.13;;;3.15;73.79
72892;BME280;61032;50.782;6.818;2023-01-25T05:08:44;102389.50;;;3.11;73.98
72892;BME280;61032;50.782;6.818;2023-01-25T05:09:45;102383.56;;;3.14;74.16
72892;BME280;61032;50.782;6.818;2023-01-25T05:10:45;102392.91;;;3.18;73.87
72892;BME280;61032;50.782;6.818;2023-01-25T05:11:45;102385.97;;;3.22;73.66
72892;BME280;61032;50.782;6.818;2023-01-25T05:12:46;102388.44;;;3.24;73.19
72892;BME280;61032;50.782;6.818;2023-01-25T05:13:46;102388.44;;;3.24;73.54
72892;BME280;61032;50.782;6.818;2023-01-25T05:14:46;102387.16;;;3.26;73.27
72892;BME280;61032;50.782;6.818;2023-01-25T05:15:47;102390.91;;;3.14;73.72
72892;BME280;61032;50.782;6.818;2023-01-25T05:16:47;102387.34;;;3.13;74.21
72892;BME280;61032;50.782;6.818;2023-01-25T05:17:47;102379.56;;;3.17;73.74
72892;BME280;61032;50.782;6.818;2023-01-25T05:18:48;102382.03;;;3.06;74.00
72892;BME280;61032;50.782;6.818;2023-01-25T05:19:48;102385.81;;;3.05;74.10
72892;BME280;61032;50.782;6.818;2023-01-25T05:20:53;102384.31;;;3.09;74.05
72892;BME280;61032;50.782;6.818;2023-01-25T05:21:54;102388.41;;;3.12;73.89
72892;BME280;61032;50.782;6.818;2023-01-25T05:22:57;102380.53;;;3.10;73.54
72892;BME280;61032;50.782;6.818;2023-01-25T05:23:57;102376.25;;;3.03;73.70
72892;BME280;61032;50.782;6.818;2023-01-25T05:24:58;102375.66;;;3.01;74.48
72892;BME280;61032;50.782;6.818;2023-01-25T05:25:58;102375.66;;;3.01;73.98
72892;BME280;61032;50.782;6.818;2023-01-25T05:27:19;102371.66;;;3.03;74.58
72892;BME280;61032;50.782;6.818;2023-01-25T05:28:19;102368.94;;;3.15;74.01
72892;BME280;61032;50.782;6.818;2023-01-25T05:29:20;102380.78;;;3.32;72.73
72892;BME280;61032;50.782;6.818;2023-01-25T05:30:20;102383.38;;;3.27;73.85
72892;BME280;61032;50.782;6.818;2023-01-25T05:31:20;102370.47;;;3.23;73.18